Time;durP1;ratioP1;P1;durP2;ratioP2;P2;SDS_P1;SDS_P2;PMS_P1;PMS_P2;Temp;Humidity;BMP_temperature;BMP_pressure;BME280_temperature;BME280_humidity;BME280_pressure;Samples;Min_cycle;Max_cycle;Signal;HPM_P1;HPM_P2
2022/01/29 00:02:02;;;;;;;27.67;13.53;;;5.40;99.90;;;;;;4963750;28;20189;-81
2022/01/29 00:04:30;;;;;;;28.47;14.10;;;5.40;99.90;;;;;;4970657;28;20225;-80
2022/01/29 00:06:58;;;;;;;26.07;14.13;;;5.40;99.90;;;;;;4970284;28;20173;-79
2022/01/29 00:09:24;;;;;;;29.77;15.87;;;5.50;99.90;;;;;;4959223;28;20190;-82
2022/01/29 00:11:50;;;;;;;30.80;14.87;;;5.50;99.90;;;;;;4972663;28;20284;-80
2022/01/29 00:14:15;;;;;;;25.23;14.80;;;5.40;99.90;;;;;;4970203;28;20204;-81
2022/01/29 00:16:41;;;;;;;34.20;16.57;;;5.40;99.90;;;;;;4950672;29;20208;-80
2022/01/29 00:19:17;;;;;;;30.33;15.70;;;5.40;99.90;;;;;;4973168;28;20171;-82
2022/01/29 00:21:43;;;;;;;29.10;14.87;;;5.50;99.90;;;;;;4972998;28;20255;-80
2022/01/29 00:24:09;;;;;;;28.77;16.33;;;5.40;99.90;;;;;;4970449;28;20692;-82
2022/01/29 00:26:35;;;;;;;30.97;17.10;;;5.40;99.90;;;;;;4966710;28;20178;-82
2022/01/29 00:29:08;;;;;;;31.67;17.03;;;5.40;99.90;;;;;;4974750;28;20173;-80
2022/01/29 00:31:34;;;;;;;28.43;17.17;;;5.50;99.90;;;;;;4977481;28;20193;-80
2022/01/29 00:34:02;;;;;;;31.40;17.33;;;5.50;99.90;;;;;;4977162;28;20772;-82
2022/01/29 00:36:27;;;;;;;31.97;18.10;;;5.50;99.90;;;;;;4960085;28;20217;-83
2022/01/29 00:38:53;;;;;;;33.17;19.03;;;5.50;99.90;;;;;;4956990;28;20276;-81
2022/01/29 00:41:19;;;;;;;33.23;19.20;;;5.50;99.90;;;;;;4965349;28;20184;-80
2022/01/29 00:43:45;;;;;;;31.57;19.50;;;5.50;99.90;;;;;;4969065;28;20224;-81
2022/01/29 00:46:10;;;;;;;33.53;20.50;;;5.50;99.90;;;;;;4971654;28;20184;-80
2022/01/29 00:48:36;;;;;;;42.67;20.90;;;5.50;99.90;;;;;;4969545;28;20177;-83
2022/01/29 00:51:02;;;;;;;38.93;20.60;;;5.50;99.90;;;;;;4961732;28;20177;-82
2022/01/29 00:53:28;;;;;;;37.40;20.77;;;5.50;99.90;;;;;;4965204;28;20201;-80
2022/01/29 00:55:58;;;;;;;36.63;21.63;;;5.50;99.90;;;;;;4972762;28;20237;-80
2022/01/29 00:58:23;;;;;;;39.67;23.13;;;5.40;99.90;;;;;;4972545;28;20326;-80
2022/01/29 01:00:49;;;;;;;43.00;23.60;;;5.40;99.90;;;;;;4962272;28;20236;-81
2022/01/29 01:03:15;;;;;;;41.10;23.70;;;5.30;99.90;;;;;;4967632;28;20211;-82
2022/01/29 01:05:50;;;;;;;38.67;24.17;;;5.20;99.90;;;;;;4955331;28;20189;-81
2022/01/29 01:08:16;;;;;;;44.07;24.90;;;5.10;99.90;;;;;;4972802;28;20166;-81
2022/01/29 01:10:42;;;;;;;49.20;28.13;;;5.10;99.90;;;;;;4976418;28;20188;-81
2022/01/29 01:13:08;;;;;;;45.00;27.00;;;5.10;99.90;;;;;;4965261;28;20191;-79
2022/01/29 01:15:41;;;;;;;44.87;28.27;;;5.00;99.90;;;;;;4972590;28;20251;-81
2022/01/29 01:18:07;;;;;;;44.07;26.93;;;4.90;99.90;;;;;;4983346;28;20191;-80
2022/01/29 01:20:33;;;;;;;50.73;31.17;;;4.90;99.90;;;;;;4973997;28;20188;-80
2022/01/29 01:22:59;;;;;;;57.10;31.40;;;4.80;99.90;;;;;;4967252;28;20220;-81
2022/01/29 01:25:27;;;;;;;58.80;33.97;;;4.80;99.90;;;;;;4973367;28;20191;-83
2022/01/29 01:27:56;;;;;;;57.80;33.93;;;4.80;99.90;;;;;;4975648;28;20185;-80
2022/01/29 01:30:25;;;;;;;65.80;34.67;;;4.70;99.90;;;;;;4965237;28;20181;-80
2022/01/29 01:32:51;;;;;;;56.53;34.97;;;4.70;99.90;;;;;;4973337;28;20202;-81
2022/01/29 01:35:23;;;;;;;66.30;36.80;;;4.80;99.90;;;;;;4960420;28;20211;-80
2022/01/29 01:37:56;;;;;;;71.73;38.77;;;4.70;99.90;;;;;;4972519;28;20181;-78
2022/01/29 01:40:26;;;;;;;73.57;39.77;;;4.80;99.90;;;;;;4972176;28;20236;-80
2022/01/29 01:42:59;;;;;;;70.20;38.90;;;4.70;99.90;;;;;;4953756;28;20212;-81
2022/01/29 01:45:28;;;;;;;77.47;39.73;;;4.70;99.90;;;;;;4971262;28;20204;-80
2022/01/29 01:48:05;;;;;;;74.87;40.73;;;4.80;99.90;;;;;;4968062;28;20173;-80
2022/01/29 01:50:31;;;;;;;73.97;40.13;;;4.70;99.90;;;;;;4968428;28;20180;-78
2022/01/29 01:52:58;;;;;;;81.57;41.10;;;4.80;99.90;;;;;;4971079;28;20177;-80
2022/01/29 01:55:24;;;;;;;85.13;42.77;;;4.80;99.90;;;;;;4954364;28;20316;-80
2022/01/29 01:57:50;;;;;;;78.53;42.93;;;4.80;99.90;;;;;;4962685;28;20309;-80
2022/01/29 02:00:16;;;;;;;74.30;43.63;;;4.80;99.90;;;;;;4962696;28;20180;-80
2022/01/29 02:02:42;;;;;;;86.37;44.23;;;4.80;99.90;;;;;;4972460;28;20214;-80
2022/01/29 02:05:09;;;;;;;86.73;45.17;;;4.90;99.90;;;;;;4952618;28;20238;-80
2022/01/29 02:07:36;;;;;;;80.63;42.13;;;4.90;99.90;;;;;;4967783;28;20237;-79
2022/01/29 02:10:09;;;;;;;84.93;42.80;;;4.90;99.90;;;;;;4977651;28;20188;-81
2022/01/29 02:13:05;;;;;;;88.43;46.13;;;4.90;99.90;;;;;;4978225;28;20220;-79
2022/01/29 02:15:31;;;;;;;87.67;44.43;;;4.80;99.90;;;;;;4981256;28;20215;-80
2022/01/29 02:17:57;;;;;;;92.83;47.63;;;4.90;99.90;;;;;;4978050;28;20169;-77
2022/01/29 02:20:27;;;;;;;90.93;44.93;;;4.90;99.90;;;;;;4971278;28;20165;-80
2022/01/29 02:22:53;;;;;;;91.63;47.57;;;5.00;99.90;;;;;;4981960;28;20172;-79
2022/01/29 02:25:39;;;;;;;94.97;47.17;;;4.90;99.90;;;;;;4963561;28;20211;-78
2022/01/29 02:28:20;;;;;;;94.07;47.80;;;4.90;99.90;;;;;;4971618;28;20267;-78
2022/01/29 02:30:49;;;;;;;94.47;45.93;;;4.90;99.90;;;;;;4968353;28;21172;-80
2022/01/29 02:33:18;;;;;;;95.17;46.30;;;4.90;99.90;;;;;;4980985;28;20624;-79
2022/01/29 02:35:46;;;;;;;96.53;48.03;;;4.90;99.90;;;;;;4978274;28;20210;-79
2022/01/29 02:38:14;;;;;;;96.97;46.70;;;5.00;99.90;;;;;;4974581;28;20661;-79
2022/01/29 02:40:49;;;;;;;97.07;47.40;;;5.00;99.90;;;;;;4972517;28;20203;-80
2022/01/29 02:43:21;;;;;;;91.27;45.27;;;4.90;99.90;;;;;;4957334;28;20199;-80
2022/01/29 02:45:48;;;;;;;102.70;47.57;;;4.90;99.90;;;;;;4956725;28;20176;-80
2022/01/29 02:48:15;;;;;;;99.40;47.50;;;5.00;99.90;;;;;;4957213;28;20183;-81
2022/01/29 02:50:41;;;;;;;97.27;46.03;;;5.00;99.90;;;;;;4955872;28;20180;-79
2022/01/29 02:53:07;;;;;;;92.43;45.60;;;5.00;99.90;;;;;;4976748;28;20176;-79
2022/01/29 02:55:34;;;;;;;97.83;46.23;;;5.00;99.90;;;;;;4979311;28;20254;-80
2022/01/29 02:58:00;;;;;;;93.67;47.13;;;5.00;99.90;;;;;;4958430;28;20174;-80
2022/01/29 03:00:27;;;;;;;93.47;46.30;;;5.10;99.90;;;;;;4975450;28;20182;-80
2022/01/29 03:02:53;;;;;;;95.13;47.60;;;5.00;99.90;;;;;;4969088;28;20222;-80
2022/01/29 03:05:22;;;;;;;103.53;46.97;;;5.00;99.90;;;;;;4970222;28;20203;-80
2022/01/29 03:07:47;;;;;;;103.27;49.00;;;5.10;99.90;;;;;;4974107;28;20207;-80
2022/01/29 03:10:14;;;;;;;101.73;46.93;;;5.10;99.90;;;;;;4972607;28;20177;-80
2022/01/29 03:12:55;;;;;;;97.80;47.23;;;5.10;99.90;;;;;;4970953;28;20209;-79
2022/01/29 03:15:21;;;;;;;94.40;45.27;;;5.10;99.90;;;;;;4972843;28;20246;-80
2022/01/29 03:17:49;;;;;;;93.97;46.20;;;5.10;99.90;;;;;;4957172;28;20176;-80
2022/01/29 03:20:15;;;;;;;92.43;45.87;;;5.10;99.90;;;;;;4969565;28;20589;-80
2022/01/29 03:22:41;;;;;;;96.40;47.07;;;5.20;99.90;;;;;;4965074;28;20171;-80
2022/01/29 03:25:07;;;;;;;95.20;44.80;;;5.20;99.90;;;;;;4974152;28;20191;-80
2022/01/29 03:27:32;;;;;;;99.23;45.57;;;5.20;99.90;;;;;;4959820;28;20185;-80
2022/01/29 03:29:58;;;;;;;98.13;46.47;;;5.20;99.90;;;;;;4959992;28;20167;-79
2022/01/29 03:32:26;;;;;;;103.73;47.80;;;5.10;99.90;;;;;;4963165;28;20179;-79
2022/01/29 03:34:52;;;;;;;94.53;45.07;;;5.20;99.90;;;;;;4978148;28;20217;-81
2022/01/29 03:37:18;;;;;;;98.63;45.53;;;5.20;99.90;;;;;;4978929;28;20184;-82
2022/01/29 03:39:48;;;;;;;94.23;45.63;;;5.20;99.90;;;;;;4962516;28;20180;-82
2022/01/29 03:42:14;;;;;;;89.73;43.77;;;5.20;99.90;;;;;;4980050;28;20181;-82
2022/01/29 03:44:40;;;;;;;88.23;41.40;;;5.20;99.90;;;;;;4960376;28;20215;-81
2022/01/29 03:47:06;;;;;;;90.07;43.80;;;5.20;99.90;;;;;;4972716;28;20180;-80
2022/01/29 03:49:32;;;;;;;91.03;45.00;;;5.30;99.90;;;;;;4968286;28;20205;-80
2022/01/29 03:51:58;;;;;;;98.27;47.00;;;5.30;99.90;;;;;;4966231;28;20203;-79
2022/01/29 03:54:24;;;;;;;97.27;45.77;;;5.30;99.90;;;;;;4975970;28;20202;-82
2022/01/29 03:56:50;;;;;;;89.70;45.37;;;5.30;99.90;;;;;;4977185;28;20620;-81
2022/01/29 03:59:16;;;;;;;90.07;43.70;;;5.30;99.90;;;;;;4967368;28;20173;-80
2022/01/29 04:01:46;;;;;;;92.17;44.37;;;5.40;99.90;;;;;;4978263;28;20172;-81
2022/01/29 04:04:11;;;;;;;91.13;43.33;;;5.30;99.90;;;;;;4971720;28;20212;-81
2022/01/29 04:06:38;;;;;;;94.03;44.83;;;5.40;99.90;;;;;;4975437;28;20204;-81
2022/01/29 04:09:06;;;;;;;89.63;44.13;;;5.40;99.90;;;;;;4970751;28;20166;-81
2022/01/29 04:11:36;;;;;;;89.17;43.13;;;5.40;99.90;;;;;;4976354;28;20180;-81
2022/01/29 04:14:03;;;;;;;82.60;41.50;;;5.40;99.90;;;;;;4966782;28;20200;-83
2022/01/29 04:16:29;;;;;;;83.43;42.83;;;5.40;99.90;;;;;;4966940;28;20276;-82
2022/01/29 04:18:55;;;;;;;78.50;40.77;;;5.50;99.90;;;;;;4976222;28;20220;-80
2022/01/29 04:21:27;;;;;;;73.00;40.13;;;5.40;99.90;;;;;;4962195;28;20192;-81
2022/01/29 04:23:54;;;;;;;81.60;41.90;;;5.40;99.90;;;;;;4964805;28;20267;-81
2022/01/29 04:26:19;;;;;;;80.90;41.83;;;5.40;99.90;;;;;;4976583;28;20174;-81
2022/01/29 04:28:46;;;;;;;75.53;38.60;;;5.50;99.90;;;;;;4975450;28;20166;-81
2022/01/29 04:31:18;;;;;;;78.13;39.53;;;5.50;99.90;;;;;;4973660;28;20183;-81
2022/01/29 04:33:43;;;;;;;78.83;39.83;;;5.50;99.90;;;;;;4974018;28;20218;-81
2022/01/29 04:36:09;;;;;;;74.40;38.43;;;5.50;99.90;;;;;;4960040;28;20252;-81
2022/01/29 04:38:38;;;;;;;67.03;35.77;;;5.60;99.90;;;;;;4975728;28;20186;-81
2022/01/29 04:41:06;;;;;;;73.13;39.33;;;5.60;99.90;;;;;;4981618;28;20250;-81
2022/01/29 04:43:36;;;;;;;76.17;39.07;;;5.60;99.90;;;;;;4999658;28;20195;-81
2022/01/29 04:46:02;;;;;;;70.63;37.70;;;5.60;99.90;;;;;;4973851;28;20161;-83
2022/01/29 04:48:28;;;;;;;64.93;36.63;;;5.60;99.90;;;;;;4973251;28;20241;-82
2022/01/29 04:50:54;;;;;;;65.77;36.03;;;5.60;99.90;;;;;;4967606;28;20171;-82
2022/01/29 04:53:21;;;;;;;66.23;36.40;;;5.60;99.90;;;;;;4988052;28;20173;-83
2022/01/29 04:55:46;;;;;;;66.47;37.40;;;5.60;99.90;;;;;;4985791;28;20243;-83
2022/01/29 04:58:12;;;;;;;72.33;38.37;;;5.70;99.90;;;;;;4974824;28;20189;-84
2022/01/29 05:00:39;;;;;;;67.17;36.97;;;5.70;99.90;;;;;;4970661;28;20216;-82
2022/01/29 05:03:08;;;;;;;67.40;36.17;;;5.70;99.90;;;;;;4985313;28;20230;-83
2022/01/29 05:05:34;;;;;;;71.23;37.43;;;5.70;99.90;;;;;;4968530;28;20225;-82
2022/01/29 05:08:01;;;;;;;69.03;37.60;;;5.70;99.90;;;;;;4982714;28;20196;-82
2022/01/29 05:10:37;;;;;;;67.10;36.20;;;5.70;99.90;;;;;;4987376;28;20177;-82
2022/01/29 05:13:07;;;;;;;67.93;37.53;;;5.70;99.90;;;;;;4967102;28;20224;-82
2022/01/29 05:15:41;;;;;;;70.50;36.57;;;5.80;99.90;;;;;;4980173;28;20240;-82
2022/01/29 05:29:09;;;;;;;61.97;32.90;;;5.90;99.90;;;;;;5001111;28;20235;-83
2022/01/29 05:31:38;;;;;;;63.97;34.33;;;5.90;99.90;;;;;;4982129;28;20198;-82
2022/01/29 05:34:04;;;;;;;62.20;33.00;;;5.90;99.90;;;;;;4968251;28;20277;-80
2022/01/29 05:36:30;;;;;;;61.07;32.17;;;5.90;99.90;;;;;;4957759;28;20557;-81
2022/01/29 05:38:56;;;;;;;61.00;32.87;;;5.90;99.90;;;;;;4972564;28;20184;-81
2022/01/29 05:41:21;;;;;;;57.57;31.47;;;6.00;99.90;;;;;;4968524;28;20183;-82
2022/01/29 05:43:47;;;;;;;57.23;31.10;;;6.00;99.90;;;;;;4954504;28;20219;-82
2022/01/29 05:46:15;;;;;;;56.73;32.00;;;6.00;99.90;;;;;;4975810;28;20549;-82
2022/01/29 05:48:42;;;;;;;57.47;33.17;;;6.00;99.90;;;;;;4978094;28;20169;-83
2022/01/29 05:51:08;;;;;;;58.60;32.53;;;6.10;99.90;;;;;;4976474;28;20168;-84
2022/01/29 05:53:34;;;;;;;59.03;32.23;;;6.10;99.90;;;;;;4975940;28;20183;-82
2022/01/29 05:56:00;;;;;;;58.47;30.67;;;6.10;99.90;;;;;;4976997;28;20211;-82
2022/01/29 05:58:26;;;;;;;61.90;32.73;;;6.10;99.90;;;;;;4976510;28;20232;-83
2022/01/29 06:00:52;;;;;;;56.97;31.87;;;6.20;99.90;;;;;;4952974;28;20639;-83
2022/01/29 06:03:19;;;;;;;53.30;29.93;;;6.20;99.90;;;;;;4979476;28;20217;-82
2022/01/29 06:05:48;;;;;;;55.00;29.10;;;6.20;99.90;;;;;;4962200;28;20164;-83
2022/01/29 06:08:19;;;;;;;47.00;27.50;;;6.30;99.90;;;;;;4976828;28;20208;-82
2022/01/29 06:10:45;;;;;;;52.97;29.20;;;6.30;99.90;;;;;;4988574;28;20231;-81
2022/01/29 06:13:13;;;;;;;49.33;28.30;;;6.30;99.90;;;;;;4957661;28;20186;-80
2022/01/29 06:15:42;;;;;;;48.00;28.83;;;6.30;99.90;;;;;;4963192;28;20206;-80
2022/01/29 06:18:17;;;;;;;46.50;26.47;;;6.30;99.90;;;;;;4960152;28;20213;-80
2022/01/29 06:20:48;;;;;;;51.07;27.80;;;6.30;99.90;;;;;;4964399;28;20197;-81
2022/01/29 06:23:15;;;;;;;50.30;28.90;;;6.40;99.90;;;;;;4956886;28;20284;-80
2022/01/29 06:25:41;;;;;;;50.20;28.20;;;6.40;99.90;;;;;;4950891;28;20214;-80
2022/01/29 06:28:07;;;;;;;48.53;27.53;;;6.40;99.90;;;;;;4969673;28;20176;-81
2022/01/29 06:30:35;;;;;;;47.70;28.13;;;6.40;99.90;;;;;;4968203;28;20210;-81
2022/01/29 06:33:12;;;;;;;50.70;28.60;;;6.50;99.90;;;;;;4955519;28;20165;-80
2022/01/29 06:35:40;;;;;;;51.43;28.30;;;6.50;99.90;;;;;;4947995;28;20285;-80
2022/01/29 06:38:07;;;;;;;52.50;29.93;;;6.50;99.90;;;;;;4957511;28;20188;-80
2022/01/29 06:40:35;;;;;;;54.43;29.47;;;6.50;99.90;;;;;;4957311;28;20193;-80
2022/01/29 06:43:03;;;;;;;57.20;30.83;;;6.50;99.90;;;;;;4974826;28;20185;-81
2022/01/29 06:45:32;;;;;;;56.50;31.17;;;6.50;99.90;;;;;;4954999;28;20198;-80
2022/01/29 06:47:58;;;;;;;59.50;34.03;;;6.50;99.90;;;;;;4960247;28;20180;-81
2022/01/29 06:50:24;;;;;;;57.37;31.03;;;6.60;99.90;;;;;;4977389;28;20180;-81
2022/01/29 06:52:53;;;;;;;52.50;28.80;;;6.60;99.90;;;;;;4963716;28;20169;-84
2022/01/29 06:55:19;;;;;;;61.20;33.77;;;6.60;99.90;;;;;;4959657;28;20297;-81
2022/01/29 06:57:45;;;;;;;60.73;32.40;;;6.60;99.90;;;;;;4982225;28;20245;-81
2022/01/29 07:00:11;;;;;;;58.77;34.23;;;6.70;99.90;;;;;;4964334;28;20187;-80
2022/01/29 07:02:40;;;;;;;67.67;33.13;;;6.70;99.90;;;;;;4961890;28;20176;-82
2022/01/29 07:05:08;;;;;;;61.10;33.60;;;6.80;99.90;;;;;;4973095;28;20208;-82
2022/01/29 07:07:34;;;;;;;64.43;32.37;;;6.70;99.90;;;;;;4971074;28;20218;-81
2022/01/29 07:10:01;;;;;;;60.47;33.20;;;6.70;99.90;;;;;;4978653;28;20174;-81
2022/01/29 07:12:27;;;;;;;65.70;34.07;;;6.80;99.90;;;;;;4964901;28;20187;-81
2022/01/29 07:14:53;;;;;;;58.80;32.10;;;6.80;99.90;;;;;;4961934;28;20238;-81
2022/01/29 07:17:22;;;;;;;61.53;32.90;;;6.80;99.90;;;;;;4988464;28;20170;-81
2022/01/29 07:19:52;;;;;;;54.20;31.10;;;6.90;99.90;;;;;;4984221;28;20189;-81
2022/01/29 07:22:19;;;;;;;57.80;30.50;;;6.80;99.90;;;;;;4981819;28;20178;-80
2022/01/29 07:24:46;;;;;;;54.00;30.33;;;6.80;99.90;;;;;;4984942;28;20226;-82
2022/01/29 07:27:13;;;;;;;57.07;29.77;;;6.90;99.90;;;;;;4981215;28;20181;-81
2022/01/29 07:29:38;;;;;;;52.17;29.53;;;6.90;99.90;;;;;;4984519;28;20189;-81
2022/01/29 07:32:05;;;;;;;53.93;30.40;;;6.90;99.90;;;;;;4987318;28;20236;-82
2022/01/29 07:34:31;;;;;;;54.13;29.00;;;6.90;99.90;;;;;;4973387;28;20220;-82
2022/01/29 07:36:57;;;;;;;49.67;28.83;;;6.90;99.90;;;;;;4986450;28;20825;-81
2022/01/29 07:39:24;;;;;;;51.63;28.37;;;7.00;99.90;;;;;;4977672;28;20195;-81
2022/01/29 07:41:50;;;;;;;46.83;26.20;;;6.90;99.90;;;;;;4984993;28;20193;-80
2022/01/29 07:44:17;;;;;;;42.20;27.07;;;7.00;99.90;;;;;;4984752;28;20274;-81
2022/01/29 07:46:43;;;;;;;41.90;25.00;;;7.00;99.90;;;;;;4983122;28;20208;-80
2022/01/29 07:49:09;;;;;;;45.47;26.00;;;7.00;99.90;;;;;;4983082;28;20202;-80
2022/01/29 07:51:36;;;;;;;42.30;24.30;;;7.00;99.90;;;;;;4985162;28;20245;-82
2022/01/29 07:54:02;;;;;;;45.53;24.90;;;7.00;99.90;;;;;;4985227;28;20191;-81
2022/01/29 07:56:27;;;;;;;38.83;24.50;;;7.10;99.90;;;;;;4970466;28;20200;-82
2022/01/29 07:58:56;;;;;;;39.47;24.90;;;7.10;99.90;;;;;;4968381;28;20183;-80
2022/01/29 08:01:22;;;;;;;36.40;23.30;;;7.10;99.90;;;;;;4984283;28;20175;-81
2022/01/29 08:03:50;;;;;;;40.13;24.03;;;7.10;99.90;;;;;;4987742;28;20257;-81
2022/01/29 08:06:17;;;;;;;34.27;21.33;;;7.10;99.90;;;;;;4967111;28;20211;-82
2022/01/29 08:08:43;;;;;;;34.07;21.33;;;7.10;99.90;;;;;;4978477;28;20207;-80
2022/01/29 08:11:10;;;;;;;36.63;21.53;;;7.10;99.90;;;;;;4986221;28;20195;-81
2022/01/29 08:13:36;;;;;;;33.23;21.10;;;7.10;99.90;;;;;;4977691;28;20168;-80
2022/01/29 08:16:03;;;;;;;35.40;20.43;;;7.10;99.90;;;;;;4984909;28;20186;-80
2022/01/29 08:18:28;;;;;;;32.77;19.97;;;7.10;99.90;;;;;;4986780;28;20168;-81
2022/01/29 08:20:54;;;;;;;27.73;18.37;;;7.10;99.90;;;;;;4977126;28;20174;-81
2022/01/29 08:23:20;;;;;;;29.63;19.53;;;7.20;99.90;;;;;;4986389;28;20235;-81
2022/01/29 08:25:45;;;;;;;30.47;18.83;;;7.20;99.90;;;;;;4977779;28;20168;-81
2022/01/29 08:28:11;;;;;;;29.30;18.57;;;7.20;99.90;;;;;;4977013;28;20198;-79
2022/01/29 08:30:38;;;;;;;30.70;18.40;;;7.20;99.90;;;;;;4975631;28;20183;-81
2022/01/29 08:33:06;;;;;;;27.57;17.63;;;7.20;99.90;;;;;;4985976;28;20181;-81
2022/01/29 08:35:31;;;;;;;24.20;15.97;;;7.20;99.90;;;;;;4962854;29;20228;-80
2022/01/29 08:37:57;;;;;;;24.00;16.53;;;7.20;99.90;;;;;;4957180;28;20195;-82
2022/01/29 08:40:24;;;;;;;22.93;15.50;;;7.20;99.90;;;;;;4976899;28;20307;-80
2022/01/29 08:42:50;;;;;;;25.23;17.17;;;7.20;99.90;;;;;;4984479;28;20183;-81
2022/01/29 08:45:16;;;;;;;22.30;15.30;;;7.30;99.90;;;;;;4974284;28;20262;-81
2022/01/29 08:47:42;;;;;;;21.77;15.43;;;7.20;99.90;;;;;;4970928;28;20279;-81
2022/01/29 08:50:09;;;;;;;21.60;15.10;;;7.20;99.90;;;;;;4956958;28;20207;-81
2022/01/29 08:52:36;;;;;;;23.07;14.73;;;7.20;99.90;;;;;;4976920;28;20196;-81
2022/01/29 08:55:04;;;;;;;21.13;14.33;;;7.30;99.90;;;;;;4976159;28;20704;-81
2022/01/29 08:57:29;;;;;;;19.83;14.43;;;7.30;99.90;;;;;;4969265;28;20192;-80
2022/01/29 08:59:56;;;;;;;20.97;15.00;;;7.30;99.90;;;;;;4975612;28;20554;-81
2022/01/29 09:02:23;;;;;;;21.87;14.43;;;7.30;99.90;;;;;;4974413;28;20183;-80
2022/01/29 09:04:48;;;;;;;19.90;14.23;;;7.30;99.90;;;;;;4976915;28;20222;-80
2022/01/29 09:07:14;;;;;;;19.70;14.23;;;7.30;99.90;;;;;;4966227;28;20176;-81
2022/01/29 09:09:44;;;;;;;17.60;13.13;;;7.30;99.90;;;;;;4974139;28;20168;-81
2022/01/29 09:12:10;;;;;;;20.23;13.00;;;7.30;99.90;;;;;;4973081;28;20183;-81
2022/01/29 09:14:36;;;;;;;18.90;14.03;;;7.30;99.90;;;;;;4981894;28;20234;-81
2022/01/29 09:17:03;;;;;;;20.53;12.80;;;7.30;99.90;;;;;;4961768;28;20188;-81
2022/01/29 09:19:28;;;;;;;17.10;12.53;;;7.30;99.90;;;;;;4964412;28;20187;-81
2022/01/29 09:21:54;;;;;;;17.83;12.57;;;7.40;99.90;;;;;;4971862;28;20172;-80
2022/01/29 09:24:22;;;;;;;15.23;11.27;;;7.40;99.90;;;;;;4975178;28;20215;-81
2022/01/29 09:26:48;;;;;;;15.80;12.07;;;7.40;99.90;;;;;;4963012;28;20711;-81
2022/01/29 09:29:14;;;;;;;17.60;11.93;;;7.40;99.90;;;;;;4976586;28;20616;-82
2022/01/29 09:31:40;;;;;;;14.17;11.47;;;7.50;99.90;;;;;;4957436;28;20627;-81
2022/01/29 09:34:06;;;;;;;15.60;12.67;;;7.50;99.90;;;;;;4970391;28;20214;-81
2022/01/29 09:36:31;;;;;;;15.27;11.97;;;7.50;99.90;;;;;;4971372;28;20656;-81
2022/01/29 09:38:57;;;;;;;17.63;12.67;;;7.50;99.90;;;;;;4973198;28;20184;-81
2022/01/29 09:41:27;;;;;;;15.57;11.07;;;7.50;99.90;;;;;;4975039;28;20179;-81
2022/01/29 09:43:55;;;;;;;16.87;12.47;;;7.60;99.90;;;;;;4976128;28;20215;-81
2022/01/29 09:46:23;;;;;;;18.37;12.10;;;7.60;99.90;;;;;;4966340;28;20207;-82
2022/01/29 09:48:49;;;;;;;17.10;11.77;;;7.60;99.90;;;;;;4972468;28;20188;-81
2022/01/29 09:51:16;;;;;;;18.13;10.83;;;7.60;99.90;;;;;;4958819;28;20263;-81
2022/01/29 09:53:45;;;;;;;18.33;12.30;;;7.60;99.90;;;;;;4973325;28;20589;-81
2022/01/29 09:56:15;;;;;;;21.30;12.47;;;7.70;99.90;;;;;;4963750;28;20176;-82
2022/01/29 09:58:42;;;;;;;15.43;11.60;;;7.70;99.90;;;;;;4966034;28;20179;-82
2022/01/29 10:01:09;;;;;;;16.03;11.20;;;7.70;99.90;;;;;;4973061;28;20196;-81
2022/01/29 10:03:35;;;;;;;15.13;11.97;;;7.70;99.90;;;;;;4957724;28;20242;-82
2022/01/29 10:06:02;;;;;;;14.43;11.20;;;7.70;99.90;;;;;;4964792;28;20183;-81
2022/01/29 10:08:42;;;;;;;16.20;11.20;;;7.70;99.90;;;;;;4957669;29;20659;-81
2022/01/29 10:11:20;;;;;;;15.57;11.30;;;7.70;99.90;;;;;;4974029;28;20164;-81
2022/01/29 10:13:47;;;;;;;15.83;10.90;;;7.70;99.90;;;;;;4981326;28;20687;-80
2022/01/29 10:16:25;;;;;;;16.27;11.27;;;7.70;99.90;;;;;;4965542;28;20180;-81
2022/01/29 10:19:03;;;;;;;14.47;10.40;;;7.70;99.90;;;;;;4951357;29;20615;-83
2022/01/29 10:21:44;;;;;;;12.73;10.00;;;7.70;99.90;;;;;;4966229;28;20199;-83
2022/01/29 10:24:13;;;;;;;13.23;9.53;;;7.70;99.90;;;;;;4972141;28;20692;-82
2022/01/29 10:26:44;;;;;;;13.57;9.97;;;7.80;99.90;;;;;;4976316;28;20543;-83
2022/01/29 10:29:20;;;;;;;13.40;10.43;;;7.80;99.90;;;;;;4967032;28;20180;-83
2022/01/29 10:32:02;;;;;;;13.97;9.93;;;7.80;99.90;;;;;;4951381;28;20235;-82
2022/01/29 10:34:32;;;;;;;13.47;9.80;;;7.80;99.90;;;;;;4965027;28;20212;-82
2022/01/29 10:37:18;;;;;;;14.57;9.70;;;7.90;99.90;;;;;;4961896;29;20192;-81
2022/01/29 10:39:59;;;;;;;13.50;9.47;;;7.90;99.90;;;;;;4993619;28;20178;-81
2022/01/29 10:42:35;;;;;;;10.30;8.30;;;7.90;99.90;;;;;;4956221;28;20176;-83
2022/01/29 10:45:06;;;;;;;10.20;8.00;;;7.90;99.90;;;;;;4973662;28;20214;-82
2022/01/29 10:47:55;;;;;;;12.93;9.33;;;8.00;99.90;;;;;;4970927;28;20173;-82
2022/01/29 10:50:21;;;;;;;11.23;9.07;;;8.00;99.90;;;;;;4972881;28;20618;-81
2022/01/29 10:52:48;;;;;;;10.80;8.80;;;8.00;99.90;;;;;;4965546;28;20230;-81
2022/01/29 10:55:15;;;;;;;8.97;8.00;;;8.00;99.90;;;;;;4970080;28;20201;-82
2022/01/29 10:57:45;;;;;;;9.27;8.27;;;8.00;99.90;;;;;;4966793;28;20183;-84
2022/01/29 11:00:21;;;;;;;8.77;7.60;;;8.00;99.90;;;;;;4970067;28;20185;-81
2022/01/29 11:02:48;;;;;;;10.90;7.93;;;8.10;99.90;;;;;;4976596;28;20203;-82
2022/01/29 11:05:15;;;;;;;11.13;7.87;;;8.10;99.90;;;;;;4966126;28;20254;-83
2022/01/29 11:07:45;;;;;;;9.80;8.50;;;8.10;99.90;;;;;;4968172;28;20183;-85
2022/01/29 11:10:11;;;;;;;8.27;6.83;;;8.10;99.90;;;;;;4963921;28;20172;-83
2022/01/29 11:12:45;;;;;;;10.87;7.77;;;8.10;99.90;;;;;;4976184;28;20180;-83
2022/01/29 11:15:15;;;;;;;9.63;7.60;;;8.10;99.90;;;;;;4966374;29;20205;-84
2022/01/29 11:17:43;;;;;;;8.57;6.83;;;8.10;99.90;;;;;;4978181;28;20560;-82
2022/01/29 11:20:10;;;;;;;10.73;7.50;;;8.10;99.90;;;;;;4966203;28;20311;-85
2022/01/29 11:22:39;;;;;;;9.57;8.00;;;8.10;99.90;;;;;;4979579;28;20237;-81
2022/01/29 11:25:11;;;;;;;9.93;7.93;;;8.10;99.90;;;;;;4966667;28;20208;-80
2022/01/29 11:27:38;;;;;;;11.67;7.83;;;8.10;99.90;;;;;;4966260;28;20181;-80
2022/01/29 11:30:13;;;;;;;9.83;8.23;;;8.10;99.90;;;;;;4980317;28;20182;-84
2022/01/29 11:32:46;;;;;;;11.00;8.63;;;8.10;99.90;;;;;;4966123;28;20176;-84
2022/01/29 11:35:20;;;;;;;13.03;9.23;;;8.20;99.90;;;;;;4971381;28;20211;-85
2022/01/29 11:38:01;;;;;;;11.73;9.37;;;8.10;99.90;;;;;;4971890;28;20626;-84
2022/01/29 11:40:34;;;;;;;12.63;9.70;;;8.10;99.90;;;;;;4987365;28;20164;-82
2022/01/29 11:43:19;;;;;;;10.73;9.63;;;8.20;99.90;;;;;;4981516;28;20180;-83
2022/01/29 11:45:56;;;;;;;14.60;9.97;;;8.20;99.90;;;;;;4976120;28;20199;-85
2022/01/29 11:48:36;;;;;;;13.33;9.17;;;8.20;99.90;;;;;;4985678;28;20205;-84
2022/01/29 11:51:08;;;;;;;13.27;9.30;;;8.30;99.90;;;;;;4988139;28;20476;-84
2022/01/29 11:53:49;;;;;;;11.97;9.10;;;8.40;99.90;;;;;;4971107;28;20188;-84
2022/01/29 11:56:35;;;;;;;13.83;8.80;;;8.40;99.90;;;;;;4968125;28;20189;-84
2022/01/29 11:59:19;;;;;;;14.23;8.83;;;8.50;99.90;;;;;;4956350;29;20652;-83
2022/01/29 12:02:00;;;;;;;9.87;8.27;;;8.50;99.90;;;;;;4984245;28;20184;-84
2022/01/29 12:04:48;;;;;;;10.40;7.57;;;8.60;99.90;;;;;;4974781;28;20213;-83
2022/01/29 12:09:54;;;;;;;9.87;7.50;;;8.70;99.90;;;;;;4993542;28;20185;-84
2022/01/29 12:12:25;;;;;;;11.50;6.63;;;8.70;99.90;;;;;;4968691;28;20203;-83
2022/01/29 12:15:21;;;;;;;9.90;6.50;;;8.70;99.90;;;;;;4963121;28;20204;-83
2022/01/29 12:17:58;;;;;;;7.20;6.47;;;8.70;99.90;;;;;;4952092;28;20188;-82
2022/01/29 12:20:26;;;;;;;8.87;6.07;;;8.70;99.90;;;;;;4955974;28;20200;-82
2022/01/29 12:23:05;;;;;;;8.53;6.07;;;8.80;99.90;;;;;;4963203;28;20243;-80
2022/01/29 12:26:09;;;;;;;10.60;6.03;;;8.80;99.90;;;;;;4976519;28;20203;-82
2022/01/29 12:28:35;;;;;;;19.47;7.80;;;8.80;99.90;;;;;;4925945;28;20189;-83
2022/01/29 12:31:04;;;;;;;7.53;5.70;;;8.90;99.90;;;;;;4958953;28;20697;-84
2022/01/29 12:33:33;;;;;;;9.63;6.23;;;8.90;99.90;;;;;;4976558;28;20199;-83
2022/01/29 12:36:03;;;;;;;8.70;6.03;;;8.90;99.90;;;;;;4977126;28;20267;-83
2022/01/29 12:38:41;;;;;;;10.47;5.73;;;8.80;99.90;;;;;;4958701;29;20219;-83
2022/01/29 12:41:49;;;;;;;9.90;5.60;;;8.70;99.90;;;;;;4965961;28;20175;-85
2022/01/29 12:45:08;;;;;;;8.73;5.87;;;8.70;99.90;;;;;;4969883;28;20276;-85
2022/01/29 12:48:26;;;;;;;7.70;5.43;;;8.70;99.90;;;;;;4962640;28;20207;-84
2022/01/29 12:55:35;;;;;;;14.40;6.70;;;8.70;99.90;;;;;;4975474;28;20227;-81
2022/01/29 12:58:04;;;;;;;139.83;32.53;;;8.80;99.90;;;;;;4955943;29;20185;-81
2022/01/29 13:01:03;;;;;;;14.87;6.33;;;9.00;99.90;;;;;;4983236;28;20177;-81
2022/01/29 13:04:17;;;;;;;7.67;4.70;;;9.10;99.90;;;;;;4993362;28;20243;-79
2022/01/29 13:06:48;;;;;;;10.17;5.83;;;9.20;99.90;;;;;;4976440;28;20191;-83
2022/01/29 13:09:53;;;;;;;11.30;5.27;;;9.30;99.90;;;;;;4977648;28;20200;-83